Time;durP1;ratioP1;P1;durP2;ratioP2;P2;SDS_P1;SDS_P2;PMS_P1;PMS_P2;Temp;Humidity;BMP_temperature;BMP_pressure;BME280_temperature;BME280_humidity;BME280_pressure;Samples;Min_cycle;Max_cycle;Signal;HPM_P1;HPM_P2
2022/12/30 00:01:34;;;;;;;25.70;5.77;;;8.90;99.90;;;;;;5016314;28;20262;-86
2022/12/30 00:04:01;;;;;;;19.23;5.07;;;8.90;99.90;;;;;;5025606;28;20245;-87
2022/12/30 00:06:32;;;;;;;22.23;4.70;;;8.90;99.90;;;;;;5030785;28;20230;-86
2022/12/30 00:08:59;;;;;;;16.20;4.17;;;8.90;99.90;;;;;;5044736;28;20231;-87
2022/12/30 00:11:28;;;;;;;24.27;6.20;;;8.90;99.90;;;;;;5053849;28;20201;-87
2022/12/30 00:33:28;;;;;;;21.20;6.60;;;8.80;99.90;;;;;;5035999;28;20201;-84
2022/12/30 00:35:55;;;;;;;26.73;5.87;;;8.70;99.90;;;;;;5033360;28;20350;-86
2022/12/30 00:38:23;;;;;;;21.33;5.23;;;8.70;99.90;;;;;;5034638;28;20550;-84
2022/12/30 00:43:35;;;;;;;18.87;4.87;;;8.70;99.90;;;;;;5033707;28;20553;-87
2022/12/30 00:46:02;;;;;;;21.33;4.93;;;8.70;99.90;;;;;;5047913;28;20287;-87
2022/12/30 00:56:44;;;;;;;20.17;4.90;;;8.50;99.90;;;;;;5050599;28;20232;-85
2022/12/30 00:59:12;;;;;;;19.07;3.80;;;8.50;99.90;;;;;;5052989;28;20293;-84
2022/12/30 01:01:39;;;;;;;17.27;3.37;;;8.50;99.90;;;;;;5053480;28;20277;-86
2022/12/30 01:04:06;;;;;;;23.17;4.87;;;8.50;99.90;;;;;;5038538;28;20564;-86
2022/12/30 01:06:33;;;;;;;14.30;4.40;;;8.50;99.90;;;;;;5033509;28;20205;-83
2022/12/30 01:09:01;;;;;;;16.77;4.60;;;8.50;99.90;;;;;;5034436;28;20234;-86
2022/12/30 01:11:28;;;;;;;24.17;4.23;;;8.40;99.90;;;;;;5033529;28;20572;-88
2022/12/30 01:13:55;;;;;;;18.47;5.07;;;8.40;99.90;;;;;;5033786;28;20278;-86
2022/12/30 01:16:22;;;;;;;20.40;4.30;;;8.40;99.90;;;;;;5049445;28;20205;-87
2022/12/30 01:18:49;;;;;;;22.57;5.03;;;8.50;99.90;;;;;;5053043;28;20284;-89
2022/12/30 01:21:16;;;;;;;22.63;4.37;;;8.50;99.90;;;;;;5053897;28;20202;-85
2022/12/30 01:23:43;;;;;;;22.83;4.87;;;8.50;99.90;;;;;;5056998;28;20304;-88
2022/12/30 01:26:12;;;;;;;29.43;6.20;;;8.50;99.90;;;;;;5051175;28;20227;-85
2022/12/30 01:28:39;;;;;;;20.03;4.33;;;8.50;99.90;;;;;;5037650;28;20788;-87
2022/12/30 01:31:07;;;;;;;28.00;4.67;;;8.50;99.90;;;;;;5036898;28;20206;-86
2022/12/30 01:33:35;;;;;;;21.70;4.73;;;8.50;99.90;;;;;;5038150;28;20198;-85
2022/12/30 01:36:02;;;;;;;27.50;5.93;;;8.40;99.90;;;;;;5036617;28;20566;-86
2022/12/30 01:38:30;;;;;;;30.70;6.60;;;8.50;99.90;;;;;;5038519;28;20194;-86
2022/12/30 01:40:57;;;;;;;24.93;5.50;;;8.50;99.90;;;;;;5056729;28;20202;-85
2022/12/30 01:43:42;;;;;;;24.20;5.20;;;8.40;99.90;;;;;;5057219;28;20204;-88
2022/12/30 01:46:11;;;;;;;30.80;6.07;;;8.40;99.90;;;;;;5056398;28;20221;-87
2022/12/30 01:48:38;;;;;;;20.17;4.73;;;8.40;99.90;;;;;;5056501;28;20829;-89
2022/12/30 01:51:10;;;;;;;28.80;5.20;;;8.40;99.90;;;;;;5050536;28;20564;-87
2022/12/30 01:53:41;;;;;;;33.03;5.60;;;8.30;99.90;;;;;;5035056;28;20278;-88
2022/12/30 01:56:13;;;;;;;28.10;5.90;;;8.30;99.90;;;;;;5034583;28;20238;-85
2022/12/30 01:58:52;;;;;;;25.67;4.73;;;8.30;99.90;;;;;;5037245;28;20206;-85
2022/12/30 02:01:19;;;;;;;24.20;5.50;;;8.20;99.90;;;;;;5036951;28;20281;-86
2022/12/30 02:03:49;;;;;;;32.83;5.50;;;8.10;99.90;;;;;;5047381;28;20678;-87
2022/12/30 02:06:22;;;;;;;33.93;5.97;;;8.10;99.90;;;;;;5055922;28;20275;-89
2022/12/30 02:08:49;;;;;;;23.17;5.77;;;8.00;99.90;;;;;;5046648;28;20230;-88
2022/12/30 02:11:16;;;;;;;24.70;4.53;;;8.00;99.90;;;;;;5036169;28;20206;-89
2022/12/30 02:13:44;;;;;;;26.23;5.80;;;7.90;99.90;;;;;;5035647;28;20198;-85
2022/12/30 02:16:28;;;;;;;23.30;4.77;;;7.80;99.90;;;;;;5036714;28;20215;-85
2022/12/30 02:19:13;;;;;;;25.77;5.17;;;7.80;99.90;;;;;;5035886;28;20206;-85
2022/12/30 02:21:50;;;;;;;27.80;6.13;;;7.70;99.90;;;;;;5036988;28;20237;-86
2022/12/30 02:24:56;;;;;;;31.30;5.17;;;7.70;99.90;;;;;;5035855;28;20321;-83
2022/12/30 02:28:03;;;;;;;30.23;5.43;;;7.70;99.90;;;;;;5044309;28;20206;-87
2022/12/30 02:30:44;;;;;;;36.13;5.97;;;7.60;99.90;;;;;;5026861;28;20450;-87
2022/12/30 02:33:24;;;;;;;21.07;5.00;;;7.70;99.90;;;;;;5040791;28;20289;-85
2022/12/30 02:36:01;;;;;;;16.67;4.43;;;7.60;99.90;;;;;;5046257;28;20289;-87
2022/12/30 02:38:38;;;;;;;19.17;4.10;;;7.60;99.90;;;;;;5055292;28;20572;-86
2022/12/30 02:46:53;;;;;;;18.83;3.87;;;7.50;99.90;;;;;;5055916;28;20601;-86
2022/12/30 02:49:24;;;;;;;16.97;3.70;;;7.50;99.90;;;;;;5035306;28;20232;-86
2022/12/30 02:54:36;;;;;;;16.80;4.47;;;7.40;99.90;;;;;;5036277;28;20585;-88
2022/12/30 02:57:18;;;;;;;19.83;4.17;;;7.50;99.90;;;;;;5035562;28;20258;-87
2022/12/30 03:05:36;;;;;;;13.67;3.23;;;7.40;99.90;;;;;;5036344;28;20205;-86
2022/12/30 03:08:10;;;;;;;19.40;4.37;;;7.30;99.90;;;;;;5035508;28;20766;-85
2022/12/30 03:13:36;;;;;;;14.77;3.10;;;7.30;99.90;;;;;;5035802;28;20182;-86
2022/12/30 03:16:09;;;;;;;16.33;4.00;;;7.30;99.90;;;;;;5035078;28;20201;-87
2022/12/30 03:18:37;;;;;;;14.83;4.17;;;7.30;99.90;;;;;;5035094;28;20234;-86
2022/12/30 03:21:09;;;;;;;10.40;2.87;;;7.40;99.90;;;;;;5035071;28;20301;-84
2022/12/30 03:29:27;;;;;;;14.67;3.90;;;7.30;99.90;;;;;;4974744;28;20239;-86
2022/12/30 03:31:55;;;;;;;15.30;3.97;;;7.30;99.90;;;;;;5010126;28;20207;-85
2022/12/30 03:34:22;;;;;;;11.67;2.83;;;7.30;99.90;;;;;;5034464;28;20237;-87
2022/12/30 03:36:55;;;;;;;16.23;4.17;;;7.20;99.90;;;;;;5034935;28;20229;-85
2022/12/30 03:39:28;;;;;;;12.23;3.80;;;7.20;99.90;;;;;;5035289;28;20285;-86
2022/12/30 03:41:55;;;;;;;18.10;4.17;;;7.20;99.90;;;;;;5035063;28;20229;-87
2022/12/30 03:44:23;;;;;;;14.17;4.10;;;7.10;99.90;;;;;;5054066;28;20237;-88
2022/12/30 03:46:50;;;;;;;12.67;4.07;;;7.10;99.90;;;;;;5054853;28;20277;-87
2022/12/30 03:49:19;;;;;;;10.33;3.53;;;7.10;99.90;;;;;;5054436;28;20228;-88
2022/12/30 03:51:45;;;;;;;18.17;3.90;;;7.10;99.90;;;;;;5054671;28;20498;-86
2022/12/30 03:54:14;;;;;;;15.43;3.60;;;7.10;99.90;;;;;;5054357;28;20201;-86
2022/12/30 03:56:41;;;;;;;19.57;5.50;;;7.10;99.90;;;;;;5054216;28;20307;-88
2022/12/30 03:59:08;;;;;;;13.50;4.70;;;7.10;99.90;;;;;;5053555;28;20474;-86
2022/12/30 04:01:35;;;;;;;12.67;4.27;;;7.10;99.90;;;;;;5054346;28;20218;-86
2022/12/30 04:04:02;;;;;;;16.10;4.47;;;7.10;99.90;;;;;;5054578;28;20277;-86
2022/12/30 04:06:29;;;;;;;16.03;3.50;;;7.00;99.90;;;;;;5034271;28;20202;-88
2022/12/30 04:08:56;;;;;;;15.70;3.33;;;7.10;99.90;;;;;;5031126;28;20593;-85
2022/12/30 04:11:24;;;;;;;13.37;3.20;;;7.10;99.90;;;;;;5031171;28;20203;-86
2022/12/30 04:13:51;;;;;;;14.47;3.43;;;7.00;99.90;;;;;;5034775;28;20241;-88
2022/12/30 04:16:18;;;;;;;10.37;3.23;;;7.00;99.90;;;;;;5034563;28;20204;-87
2022/12/30 04:18:45;;;;;;;15.60;3.90;;;7.00;99.90;;;;;;5034516;28;20647;-88
2022/12/30 04:21:12;;;;;;;13.77;3.93;;;6.90;99.90;;;;;;5048809;28;20209;-87
2022/12/30 04:23:39;;;;;;;15.67;3.17;;;7.00;99.90;;;;;;5054693;28;20284;-88
2022/12/30 04:26:06;;;;;;;15.40;3.10;;;6.90;99.90;;;;;;5052631;28;20217;-88
2022/12/30 04:28:34;;;;;;;14.37;3.57;;;6.90;99.90;;;;;;5034182;28;20233;-87
2022/12/30 04:31:01;;;;;;;17.33;4.13;;;6.90;99.90;;;;;;5034122;28;20198;-87
2022/12/30 04:33:29;;;;;;;19.63;3.93;;;6.90;99.90;;;;;;5034307;28;20257;-87
2022/12/30 04:35:56;;;;;;;12.40;3.07;;;6.80;99.90;;;;;;5034296;28;20218;-87
2022/12/30 04:38:23;;;;;;;15.97;3.60;;;6.80;99.90;;;;;;5033907;28;20211;-86
2022/12/30 04:40:50;;;;;;;12.47;3.23;;;6.80;99.90;;;;;;5034045;28;20268;-86
2022/12/30 04:43:17;;;;;;;10.17;3.57;;;6.80;99.90;;;;;;5033890;28;20556;-87
2022/12/30 04:45:45;;;;;;;11.43;3.20;;;6.70;99.90;;;;;;5033839;28;20249;-86
2022/12/30 04:48:12;;;;;;;14.67;4.10;;;6.70;99.90;;;;;;5033909;28;20282;-85
2022/12/30 04:50:42;;;;;;;14.23;3.27;;;6.60;99.90;;;;;;5033986;28;20205;-86
2022/12/30 04:53:09;;;;;;;10.73;2.73;;;6.60;99.90;;;;;;5034000;28;20211;-87
2022/12/30 04:55:36;;;;;;;11.10;3.17;;;6.70;99.90;;;;;;5032229;28;20245;-87
2022/12/30 04:58:03;;;;;;;11.70;3.63;;;6.60;99.90;;;;;;5037451;28;20254;-87
2022/12/30 05:00:30;;;;;;;8.67;2.70;;;6.60;99.90;;;;;;5037607;28;20202;-87
2022/12/30 05:02:59;;;;;;;9.77;3.20;;;6.60;99.90;;;;;;5037249;28;20207;-87
2022/12/30 05:05:26;;;;;;;11.17;3.73;;;6.50;99.90;;;;;;5050996;28;20563;-86
2022/12/30 05:07:53;;;;;;;12.87;3.10;;;6.50;99.90;;;;;;5055144;28;20675;-86
2022/12/30 05:10:20;;;;;;;9.80;4.00;;;6.50;99.90;;;;;;5056853;28;20251;-86
2022/12/30 05:12:47;;;;;;;11.50;3.53;;;6.50;99.90;;;;;;5057453;28;20252;-86
2022/12/30 05:15:14;;;;;;;11.23;3.53;;;6.50;99.90;;;;;;5056811;28;20593;-87
2022/12/30 05:17:41;;;;;;;17.03;4.03;;;6.40;99.90;;;;;;5054119;28;21286;-86
2022/12/30 05:20:10;;;;;;;11.63;3.73;;;6.50;99.90;;;;;;5037281;28;20225;-86
2022/12/30 05:22:37;;;;;;;13.23;3.47;;;6.40;99.90;;;;;;5035266;28;20309;-85
2022/12/30 05:27:49;;;;;;;13.37;3.87;;;6.40;99.90;;;;;;5036028;28;20189;-86
2022/12/30 05:30:17;;;;;;;13.97;4.33;;;6.50;99.90;;;;;;5043424;28;20276;-86
2022/12/30 05:32:44;;;;;;;13.47;3.00;;;6.40;99.90;;;;;;5036340;28;20607;-86
2022/12/30 05:35:12;;;;;;;9.17;3.47;;;6.40;99.90;;;;;;5036247;28;20608;-86
2022/12/30 05:37:39;;;;;;;10.23;3.47;;;6.40;99.90;;;;;;5036245;28;20206;-86
2022/12/30 05:40:07;;;;;;;11.50;3.63;;;6.30;99.90;;;;;;5036165;28;20205;-86
2022/12/30 05:42:34;;;;;;;12.10;3.53;;;6.30;99.90;;;;;;5035909;28;20328;-84
2022/12/30 05:45:01;;;;;;;14.97;4.50;;;6.30;99.90;;;;;;5035961;28;20621;-85
2022/12/30 05:47:28;;;;;;;13.80;3.27;;;6.30;99.90;;;;;;5036312;28;20277;-86
2022/12/30 05:49:55;;;;;;;10.63;3.80;;;6.30;99.90;;;;;;5036196;28;20305;-87
2022/12/30 05:52:23;;;;;;;14.57;4.93;;;6.20;99.90;;;;;;5036215;28;20206;-86
2022/12/30 05:54:50;;;;;;;8.43;3.87;;;6.20;99.90;;;;;;5036556;28;20675;-86
2022/12/30 05:57:17;;;;;;;16.77;4.13;;;6.20;99.90;;;;;;5035663;28;20685;-86
2022/12/30 05:59:44;;;;;;;14.67;4.07;;;6.20;99.90;;;;;;5035713;28;20217;-85
2022/12/30 06:02:11;;;;;;;11.73;4.10;;;6.20;99.90;;;;;;5035971;28;20234;-86
2022/12/30 06:04:38;;;;;;;13.03;3.90;;;6.20;99.90;;;;;;5035891;28;20650;-86
2022/12/30 06:07:05;;;;;;;14.70;4.03;;;6.10;99.90;;;;;;5034993;28;20209;-88
2022/12/30 06:09:33;;;;;;;12.83;4.20;;;6.20;99.90;;;;;;5035053;28;20223;-86
2022/12/30 06:12:00;;;;;;;13.43;3.57;;;6.20;99.90;;;;;;5035820;28;20234;-86
2022/12/30 06:14:27;;;;;;;14.60;5.17;;;6.20;99.90;;;;;;5034380;28;20281;-87
2022/12/30 06:16:54;;;;;;;16.23;4.77;;;6.10;99.90;;;;;;5042750;28;20217;-85
2022/12/30 06:19:21;;;;;;;15.27;4.37;;;6.10;99.90;;;;;;5055348;28;20237;-87
2022/12/30 06:21:48;;;;;;;14.70;4.47;;;6.20;99.90;;;;;;5039281;28;20253;-85
2022/12/30 06:24:15;;;;;;;16.60;4.43;;;6.20;99.90;;;;;;5035648;28;20372;-85
2022/12/30 06:26:43;;;;;;;14.13;4.30;;;6.10;99.90;;;;;;5035054;28;20209;-86
2022/12/30 06:29:10;;;;;;;15.73;4.10;;;6.10;99.90;;;;;;5033437;28;20250;-86
2022/12/30 06:31:37;;;;;;;11.57;4.33;;;6.10;99.90;;;;;;5034258;28;20199;-85
2022/12/30 06:34:04;;;;;;;12.10;3.80;;;6.10;99.90;;;;;;5046241;28;20300;-84
2022/12/30 06:36:31;;;;;;;13.90;3.87;;;6.00;99.90;;;;;;5054949;28;20300;-82
2022/12/30 06:38:58;;;;;;;14.93;3.50;;;6.00;99.90;;;;;;5054499;28;20285;-83
2022/12/30 06:41:25;;;;;;;9.97;3.83;;;6.00;99.90;;;;;;5054474;28;20209;-84
2022/12/30 06:43:53;;;;;;;13.60;4.50;;;6.00;99.90;;;;;;5036815;28;20202;-85
2022/12/30 06:46:20;;;;;;;14.20;4.27;;;6.00;99.90;;;;;;5034526;28;20226;-83
2022/12/30 06:48:47;;;;;;;14.67;4.03;;;5.90;99.90;;;;;;5034645;28;20232;-84
2022/12/30 06:51:14;;;;;;;15.37;3.97;;;5.90;99.90;;;;;;5034670;28;20217;-82
2022/12/30 06:53:41;;;;;;;17.27;4.37;;;5.90;99.90;;;;;;5034490;28;20293;-84
2022/12/30 06:56:08;;;;;;;12.20;3.90;;;5.90;99.90;;;;;;5035793;28;20237;-84
2022/12/30 06:58:35;;;;;;;10.00;4.60;;;5.90;99.90;;;;;;5054189;28;20208;-85
2022/12/30 07:01:04;;;;;;;14.33;4.20;;;5.90;99.90;;;;;;5039891;28;20237;-83
2022/12/30 07:03:31;;;;;;;14.03;5.10;;;5.90;99.90;;;;;;5034145;28;20287;-84
2022/12/30 07:05:58;;;;;;;11.10;4.67;;;5.90;99.90;;;;;;5034449;28;20570;-84
2022/12/30 07:08:25;;;;;;;18.20;5.13;;;5.80;99.90;;;;;;5033627;28;20480;-83
2022/12/30 07:10:54;;;;;;;16.03;4.63;;;5.80;99.90;;;;;;5041061;28;20214;-84
2022/12/30 07:13:21;;;;;;;17.40;5.40;;;5.80;99.90;;;;;;5054134;28;20201;-85
2022/12/30 07:15:48;;;;;;;21.77;6.50;;;5.80;99.90;;;;;;5047780;28;20194;-84
2022/12/30 07:18:16;;;;;;;15.80;4.60;;;5.80;99.90;;;;;;5033318;28;20213;-85
2022/12/30 07:20:44;;;;;;;14.70;5.73;;;5.80;99.90;;;;;;5033149;28;20474;-84
2022/12/30 07:23:11;;;;;;;15.13;5.97;;;5.80;99.90;;;;;;5033600;28;20311;-85
2022/12/30 07:25:38;;;;;;;14.80;6.10;;;5.80;99.90;;;;;;5034182;28;20207;-85
2022/12/30 07:28:07;;;;;;;14.70;5.37;;;5.70;99.90;;;;;;5033384;28;20209;-84
2022/12/30 07:30:34;;;;;;;18.93;5.70;;;5.70;99.90;;;;;;5034195;28;20207;-85
2022/12/30 07:33:01;;;;;;;14.43;5.40;;;5.70;99.90;;;;;;5033289;28;20285;-85
2022/12/30 07:35:29;;;;;;;22.63;5.73;;;5.70;99.90;;;;;;5033123;28;20285;-84
2022/12/30 07:37:56;;;;;;;15.27;5.03;;;5.70;99.90;;;;;;5016798;28;20199;-85
2022/12/30 07:40:23;;;;;;;16.17;4.90;;;5.70;99.90;;;;;;5034099;28;20269;-86
2022/12/30 07:42:50;;;;;;;18.60;5.00;;;5.70;99.90;;;;;;5033778;28;20209;-85
2022/12/30 07:45:17;;;;;;;21.93;5.70;;;5.70;99.90;;;;;;5034172;28;20203;-85
2022/12/30 07:47:44;;;;;;;9.67;4.67;;;5.70;99.90;;;;;;5033362;28;20278;-86
2022/12/30 07:50:12;;;;;;;16.07;4.63;;;5.60;99.90;;;;;;5034007;28;20223;-86
2022/12/30 07:52:41;;;;;;;15.27;5.20;;;5.60;99.90;;;;;;5034588;28;20297;-87
2022/12/30 07:55:08;;;;;;;9.20;4.47;;;5.60;99.90;;;;;;5033772;28;20206;-85
2022/12/30 07:57:35;;;;;;;19.57;4.67;;;5.60;99.90;;;;;;5051869;28;20225;-87
2022/12/30 08:00:03;;;;;;;13.13;4.70;;;5.60;99.90;;;;;;5051924;28;20194;-88
2022/12/30 08:02:30;;;;;;;17.03;4.80;;;5.60;99.90;;;;;;5053317;28;20198;-84
2022/12/30 08:04:57;;;;;;;10.63;4.37;;;5.60;99.90;;;;;;5044022;28;20241;-87
2022/12/30 08:07:24;;;;;;;15.53;4.77;;;5.60;99.90;;;;;;5033101;28;20202;-85
2022/12/30 08:09:52;;;;;;;14.37;3.83;;;5.60;99.90;;;;;;5033022;28;20585;-86
2022/12/30 08:12:19;;;;;;;15.30;4.57;;;5.70;99.90;;;;;;5032828;28;20213;-87
2022/12/30 08:14:46;;;;;;;15.00;4.97;;;5.70;99.90;;;;;;5033984;28;20234;-86
2022/12/30 08:17:12;;;;;;;14.20;4.77;;;5.70;99.90;;;;;;5033721;28;20290;-87
2022/12/30 08:19:39;;;;;;;20.00;4.47;;;5.70;99.90;;;;;;5034387;28;20234;-86
2022/12/30 08:22:06;;;;;;;11.47;3.93;;;5.70;99.90;;;;;;5034397;28;20634;-86
2022/12/30 08:24:33;;;;;;;20.57;5.80;;;5.70;99.90;;;;;;5041621;28;20277;-89
2022/12/30 08:27:01;;;;;;;13.83;4.63;;;5.80;99.90;;;;;;5054682;28;20221;-86
2022/12/30 08:29:28;;;;;;;15.47;4.57;;;5.80;99.90;;;;;;5053193;28;20202;-82
2022/12/30 08:31:58;;;;;;;13.17;5.03;;;5.80;99.90;;;;;;5056114;28;20202;-85
2022/12/30 08:34:25;;;;;;;17.70;4.63;;;5.80;99.90;;;;;;5057806;28;20236;-84
2022/12/30 08:36:57;;;;;;;17.37;5.20;;;5.90;99.90;;;;;;5054526;28;20750;-86
2022/12/30 08:39:24;;;;;;;18.37;5.43;;;5.90;99.90;;;;;;5072189;28;20235;-84
2022/12/30 08:41:51;;;;;;;21.97;5.97;;;5.90;99.90;;;;;;5058353;28;20300;-85
2022/12/30 08:44:19;;;;;;;17.60;5.00;;;5.90;99.90;;;;;;5061068;28;20269;-84
2022/12/30 08:46:46;;;;;;;11.53;4.80;;;5.90;99.90;;;;;;5057927;28;20292;-85
2022/12/30 08:49:13;;;;;;;15.40;5.07;;;6.00;99.90;;;;;;5062373;28;20296;-85
2022/12/30 08:51:40;;;;;;;14.40;5.13;;;6.00;99.90;;;;;;5054772;28;20234;-85
2022/12/30 08:54:09;;;;;;;13.27;4.90;;;6.00;99.90;;;;;;5060756;28;20232;-86
2022/12/30 08:56:39;;;;;;;14.17;5.33;;;6.10;99.90;;;;;;5056952;28;20242;-83
2022/12/30 08:59:10;;;;;;;18.47;5.37;;;6.10;99.90;;;;;;5057246;28;20645;-85
2022/12/30 09:01:40;;;;;;;16.60;5.47;;;6.10;99.90;;;;;;5047054;28;20211;-87
2022/12/30 09:04:08;;;;;;;11.63;4.80;;;6.10;99.90;;;;;;5044823;28;20241;-84
2022/12/30 09:06:36;;;;;;;15.73;5.50;;;6.20;99.90;;;;;;5057597;28;20220;-87
2022/12/30 09:09:05;;;;;;;10.50;5.20;;;6.20;99.90;;;;;;5045988;28;20236;-85
2022/12/30 09:11:35;;;;;;;14.37;5.53;;;6.20;99.90;;;;;;5057196;28;20266;-85
2022/12/30 09:14:04;;;;;;;11.83;5.40;;;6.20;99.90;;;;;;5057608;28;20203;-85
2022/12/30 09:16:32;;;;;;;15.00;5.63;;;6.30;99.90;;;;;;5054500;28;20424;-86
2022/12/30 09:19:00;;;;;;;11.40;5.93;;;6.30;99.90;;;;;;5037825;28;20191;-87
2022/12/30 09:21:28;;;;;;;15.10;5.50;;;6.40;99.90;;;;;;5037483;28;20190;-88
2022/12/30 09:23:55;;;;;;;13.57;5.63;;;6.40;99.90;;;;;;5041720;28;20225;-87
2022/12/30 09:26:24;;;;;;;15.87;5.97;;;6.50;99.90;;;;;;5057449;28;20281;-87
2022/12/30 09:28:52;;;;;;;17.10;5.33;;;6.50;99.90;;;;;;5056847;28;20193;-88
2022/12/30 09:31:19;;;;;;;10.87;4.70;;;6.60;99.90;;;;;;5060111;28;20234;-89
2022/12/30 09:33:46;;;;;;;13.40;6.30;;;6.60;99.90;;;;;;5059156;28;20225;-85
2022/12/30 09:36:15;;;;;;;13.83;4.93;;;6.70;99.90;;;;;;5045465;28;20221;-87
2022/12/30 09:38:43;;;;;;;11.17;5.03;;;6.70;99.90;;;;;;5052872;28;20216;-86
2022/12/30 09:41:12;;;;;;;8.83;4.40;;;6.80;99.90;;;;;;5056918;28;20292;-86
2022/12/30 09:43:47;;;;;;;9.23;4.30;;;6.80;99.90;;;;;;5052172;28;20285;-89
2022/12/30 09:46:28;;;;;;;11.27;4.20;;;6.90;99.90;;;;;;5052751;28;20189;-85
2022/12/30 09:49:00;;;;;;;13.70;4.93;;;6.90;99.90;;;;;;5018889;28;20388;-85
2022/12/30 09:51:33;;;;;;;17.10;5.57;;;7.00;99.90;;;;;;5055839;28;20248;-86
2022/12/30 09:54:04;;;;;;;12.73;4.93;;;7.00;99.90;;;;;;5055074;28;20297;-87
2022/12/30 09:56:33;;;;;;;10.77;4.40;;;7.00;99.90;;;;;;5058143;28;20230;-84
2022/12/30 09:59:05;;;;;;;11.77;4.57;;;7.00;99.90;;;;;;5048634;28;20650;-87
2022/12/30 10:01:37;;;;;;;10.83;4.70;;;7.10;99.90;;;;;;5055772;28;20272;-84
2022/12/30 10:04:04;;;;;;;10.27;4.07;;;7.10;99.90;;;;;;5054832;28;20285;-85
2022/12/30 10:06:37;;;;;;;16.73;5.43;;;7.10;99.90;;;;;;5072057;28;20247;-84
2022/12/30 10:09:43;;;;;;;12.13;4.80;;;7.10;99.90;;;;;;5055767;28;20758;-83
2022/12/30 10:12:33;;;;;;;6.00;3.50;;;7.10;99.90;;;;;;5045117;28;20230;-86
2022/12/30 10:15:23;;;;;;;10.60;4.40;;;7.10;99.90;;;;;;5042333;28;20231;-85
2022/12/30 10:18:05;;;;;;;8.77;3.60;;;7.10;99.90;;;;;;5051325;28;20741;-84
2022/12/30 10:20:45;;;;;;;10.27;4.07;;;7.10;99.90;;;;;;5050674;28;20212;-85
2022/12/30 10:23:25;;;;;;;9.77;4.33;;;7.20;99.90;;;;;;5056589;28;20279;-85
2022/12/30 10:25:59;;;;;;;8.73;3.80;;;7.10;99.90;;;;;;5055416;28;20194;-83
2022/12/30 10:28:32;;;;;;;10.00;3.70;;;7.10;99.90;;;;;;5053447;28;20197;-84
2022/12/30 10:30:59;;;;;;;10.03;4.27;;;7.20;99.90;;;;;;5055134;28;20299;-85
2022/12/30 10:33:27;;;;;;;6.70;4.03;;;7.20;99.90;;;;;;5055428;28;20208;-86
2022/12/30 10:36:04;;;;;;;8.83;3.93;;;7.20;99.90;;;;;;5069620;28;20288;-83
2022/12/30 10:38:32;;;;;;;11.63;3.70;;;7.20;99.90;;;;;;5053811;28;20195;-84
2022/12/30 10:41:11;;;;;;;9.00;3.70;;;7.20;99.90;;;;;;5065207;28;20204;-86
2022/12/30 10:43:52;;;;;;;6.30;3.43;;;7.20;99.90;;;;;;5069979;28;20228;-89
2022/12/30 10:46:32;;;;;;;7.30;3.63;;;7.20;99.90;;;;;;5063669;28;20202;-88
2022/12/30 10:49:19;;;;;;;11.20;3.80;;;7.20;99.90;;;;;;5035754;28;20302;-85
2022/12/30 10:51:49;;;;;;;7.70;3.37;;;7.20;99.90;;;;;;5050381;28;20536;-86
2022/12/30 10:54:17;;;;;;;8.80;4.03;;;7.20;99.90;;;;;;5051929;28;20264;-87
2022/12/30 10:56:45;;;;;;;6.30;3.33;;;7.20;99.90;;;;;;5046861;28;20245;-84
2022/12/30 10:59:15;;;;;;;9.40;4.27;;;7.20;99.90;;;;;;5054239;28;20719;-83
2022/12/30 11:01:45;;;;;;;6.17;2.80;;;7.20;99.90;;;;;;5037848;28;20202;-84
2022/12/30 11:04:33;;;;;;;8.10;3.00;;;7.30;99.90;;;;;;5043396;28;20210;-87
2022/12/30 11:07:01;;;;;;;8.63;3.10;;;7.30;99.90;;;;;;5034726;28;20203;-85
2022/12/30 11:09:30;;;;;;;8.43;2.60;;;7.30;99.90;;;;;;5035546;28;20293;-83
2022/12/30 11:14:45;;;;;;;5.53;2.63;;;7.30;99.90;;;;;;5069250;28;20197;-87
2022/12/30 11:17:22;;;;;;;7.03;2.77;;;7.40;99.90;;;;;;5036770;28;20684;-86
2022/12/30 11:19:51;;;;;;;6.23;2.70;;;7.40;99.90;;;;;;5057500;28;20268;-89
2022/12/30 11:22:19;;;;;;;6.57;3.00;;;7.50;99.90;;;;;;5054209;28;20267;-85
2022/12/30 11:25:00;;;;;;;9.63;3.63;;;7.50;99.90;;;;;;5054586;28;20625;-86
2022/12/30 11:27:47;;;;;;;6.70;2.50;;;7.50;99.90;;;;;;5068947;28;20204;-83
2022/12/30 11:30:25;;;;;;;15.07;4.20;;;7.50;99.90;;;;;;5061116;28;20182;-84
2022/12/30 11:32:54;;;;;;;7.27;2.87;;;7.50;99.90;;;;;;5037676;28;20202;-87
2022/12/30 11:35:38;;;;;;;5.53;2.67;;;7.50;99.90;;;;;;5046935;28;20203;-84
2022/12/30 11:38:25;;;;;;;8.07;2.33;;;7.60;99.90;;;;;;5074083;28;20550;-83
2022/12/30 11:40:54;;;;;;;6.27;2.40;;;7.60;99.90;;;;;;5055366;28;20205;-85
2022/12/30 11:43:22;;;;;;;8.60;2.50;;;7.60;99.90;;;;;;5074102;28;20680;-84
2022/12/30 11:46:03;;;;;;;8.47;2.70;;;7.70;99.90;;;;;;5074062;28;20699;-82
2022/12/30 11:48:33;;;;;;;7.00;2.93;;;7.70;99.90;;;;;;5033646;28;20234;-86
2022/12/30 11:51:02;;;;;;;10.57;3.27;;;7.70;99.90;;;;;;5033470;28;20234;-83
2022/12/30 11:53:32;;;;;;;7.97;2.30;;;7.70;99.90;;;;;;5033750;28;20205;-85
2022/12/30 11:56:01;;;;;;;8.80;2.57;;;7.70;99.90;;;;;;5032821;28;20202;-86
2022/12/30 11:58:33;;;;;;;5.93;3.17;;;7.80;99.90;;;;;;5033423;28;20194;-85
2022/12/30 12:01:05;;;;;;;11.57;2.80;;;7.90;99.90;;;;;;5034991;28;20213;-84
2022/12/30 12:03:33;;;;;;;6.63;2.63;;;7.90;99.90;;;;;;5033955;28;20202;-83
2022/12/30 12:06:09;;;;;;;9.73;1.90;;;7.90;99.90;;;;;;5033403;28;20190;-86
2022/12/30 12:08:42;;;;;;;6.93;2.47;;;7.90;99.90;;;;;;5038958;28;20548;-85
2022/12/30 12:11:16;;;;;;;8.27;2.60;;;8.00;99.90;;;;;;5051086;28;20309;-85
2022/12/30 12:13:52;;;;;;;8.47;3.60;;;8.00;99.90;;;;;;5040855;28;20297;-83
2022/12/30 12:16:32;;;;;;;6.10;2.50;;;8.00;99.90;;;;;;5033849;28;20485;-82
2022/12/30 12:19:08;;;;;;;5.47;2.53;;;8.00;99.90;;;;;;5054649;28;20217;-85
2022/12/30 12:21:40;;;;;;;7.40;2.73;;;8.00;99.90;;;;;;5035556;28;20194;-84
2022/12/30 12:24:17;;;;;;;6.20;2.43;;;8.00;99.90;;;;;;5058885;28;20237;-83
2022/12/30 12:26:52;;;;;;;8.17;2.10;;;8.00;99.90;;;;;;5048184;28;20202;-85
2022/12/30 12:29:19;;;;;;;8.40;2.50;;;8.00;99.90;;;;;;5064497;28;20197;-85
2022/12/30 12:32:10;;;;;;;6.13;3.00;;;8.00;99.90;;;;;;5069257;28;20231;-82
2022/12/30 12:34:49;;;;;;;8.87;3.20;;;8.00;99.90;;;;;;5049225;28;20513;-86
2022/12/30 12:37:30;;;;;;;6.53;2.30;;;8.00;99.90;;;;;;5036036;28;20214;-80
2022/12/30 12:40:18;;;;;;;7.00;2.50;;;8.00;99.90;;;;;;5052986;28;20197;-83
2022/12/30 12:42:55;;;;;;;10.53;3.07;;;8.00;99.90;;;;;;5059534;28;20197;-82
2022/12/30 12:45:46;;;;;;;10.53;2.60;;;8.00;99.90;;;;;;5051012;28;20277;-85
2022/12/30 12:48:36;;;;;;;12.53;4.43;;;8.10;99.90;;;;;;5048844;28;20267;-87
2022/12/30 12:51:24;;;;;;;9.57;2.80;;;8.10;99.90;;;;;;5053947;28;20316;-85
2022/12/30 12:54:32;;;;;;;10.23;2.40;;;8.20;99.90;;;;;;5060727;28;20280;-88
2022/12/30 12:57:11;;;;;;;7.10;2.17;;;8.30;99.90;;;;;;4986781;28;20241;-85
2022/12/30 13:00:05;;;;;;;9.50;2.53;;;8.30;99.90;;;;;;5033625;28;20191;-87
2022/12/30 13:03:01;;;;;;;7.63;2.70;;;8.30;99.90;;;;;;5032853;28;20286;-85
2022/12/30 13:05:32;;;;;;;7.30;2.83;;;8.40;99.90;;;;;;5032564;28;20317;-87
2022/12/30 13:08:07;;;;;;;7.83;3.00;;;8.40;99.90;;;;;;5043261;28;20189;-83
2022/12/30 13:10:40;;;;;;;7.50;2.70;;;8.40;99.90;;;;;;5032739;28;20565;-87
2022/12/30 13:13:16;;;;;;;6.17;2.27;;;8.40;99.90;;;;;;5051325;28;20279;-92
2022/12/30 13:15:51;;;;;;;17.47;3.03;;;8.50;99.90;;;;;;5050865;28;20182;-84
2022/12/30 13:18:23;;;;;;;6.03;2.13;;;8.50;99.90;;;;;;5052010;28;20229;-83
2022/12/30 13:20:53;;;;;;;9.13;2.50;;;8.50;99.90;;;;;;5057554;28;20282;-90
2022/12/30 13:23:24;;;;;;;8.90;2.60;;;8.50;99.90;;;;;;5056521;28;20250;-84
2022/12/30 13:25:55;;;;;;;11.10;2.30;;;8.50;99.90;;;;;;5055536;28;20210;-91
2022/12/30 13:28:24;;;;;;;8.93;2.63;;;8.50;99.90;;;;;;5056718;28;20218;-87
2022/12/30 13:31:05;;;;;;;8.87;2.50;;;8.50;99.90;;;;;;5057416;28;20204;-93
2022/12/30 13:33:42;;;;;;;8.37;3.00;;;8.50;99.90;;;;;;5061219;28;20213;-87
2022/12/30 13:36:16;;;;;;;10.97;2.40;;;8.60;99.90;;;;;;5038750;28;20217;-87
2022/12/30 13:38:59;;;;;;;8.07;2.33;;;8.60;99.90;;;;;;5056124;28;20286;-87
2022/12/30 13:42:05;;;;;;;7.37;2.33;;;8.60;99.90;;;;;;5058455;28;20197;-91
2022/12/30 13:44:36;;;;;;;7.13;2.03;;;8.60;99.90;;;;;;5046287;28;20730;-92
2022/12/30 13:47:06;;;;;;;10.53;3.27;;;8.60;99.90;;;;;;5037761;28;20226;-89
2022/12/30 13:49:36;;;;;;;4.53;1.73;;;8.60;99.90;;;;;;5037437;28;20206;-90
2022/12/30 13:52:05;;;;;;;6.83;2.20;;;8.60;99.90;;;;;;5036833;28;20545;-92
2022/12/30 13:54:33;;;;;;;4.23;2.43;;;8.60;99.90;;;;;;5035372;28;20242;-96
2022/12/30 13:57:03;;;;;;;7.60;2.20;;;8.60;99.90;;;;;;5042098;28;20230;-95
2022/12/30 13:59:33;;;;;;;5.20;1.70;;;8.60;99.90;;;;;;5055946;28;20213;-89
2022/12/30 14:02:39;;;;;;;10.53;2.87;;;8.60;99.90;;;;;;5039697;28;20207;-96
2022/12/30 14:05:47;;;;;;;6.30;2.20;;;8.70;99.90;;;;;;5013978;28;20202;-86
2022/12/30 14:08:41;;;;;;;7.63;2.20;;;8.70;99.90;;;;;;5036069;28;20226;-91
2022/12/30 14:11:13;;;;;;;5.50;2.10;;;8.70;99.90;;;;;;5039944;28;20237;-92